createdAt,value
2024-01-16T00:02:11.605Z,99943.88
2024-01-16T00:04:38.710Z,99955.22
2024-01-16T00:07:05.874Z,99954.00
2024-01-16T00:09:36.074Z,99946.22
2024-01-16T00:12:05.724Z,99948.09
2024-01-16T00:14:37.568Z,99950.41
2024-01-16T00:17:04.443Z,99940.66
2024-01-16T00:19:31.007Z,99957.69
2024-01-16T00:21:57.557Z,99955.19
2024-01-16T00:24:24.331Z,99961.78
2024-01-16T00:26:52.039Z,99968.34
2024-01-16T00:29:18.691Z,99975.66
2024-01-16T00:31:45.266Z,99968.69
2024-01-16T00:34:11.807Z,99962.84
2024-01-16T00:36:38.327Z,99971.00
2024-01-16T00:39:04.852Z,99962.78
2024-01-16T00:41:31.605Z,99971.97
2024-01-16T00:43:58.149Z,99973.69
2024-01-16T00:46:24.687Z,99975.22
2024-01-16T00:48:51.326Z,99971.56
2024-01-16T00:51:17.849Z,99976.13
2024-01-16T00:53:45.225Z,99969.50
2024-01-16T00:56:12.128Z,99971.97
2024-01-16T00:58:38.904Z,99971.97
2024-01-16T01:01:05.684Z,99978.16
2024-01-16T01:03:32.336Z,99976.88
2024-01-16T01:05:59.370Z,99988.97
2024-01-16T01:08:25.979Z,99985.22
2024-01-16T01:10:52.609Z,99990.31
2024-01-16T01:13:19.257Z,99988.72
2024-01-16T01:15:45.867Z,99994.03
2024-01-16T01:18:12.492Z,100002.31
2024-01-16T01:20:39.081Z,99988.59
2024-01-16T01:23:05.617Z,99978.09
2024-01-16T01:25:32.139Z,99986.38
2024-01-16T01:27:58.673Z,99984.91
2024-01-16T01:30:25.375Z,99988.78
2024-01-16T01:32:52.164Z,99975.03
2024-01-16T01:35:20.809Z,99974.38
2024-01-16T01:37:47.535Z,99959.38
2024-01-16T01:40:16.714Z,99957.38
2024-01-16T01:42:43.855Z,99953.47
2024-01-16T01:45:11.423Z,99956.03
2024-01-16T01:47:45.005Z,99947.25
2024-01-16T01:50:12.200Z,99946.75
2024-01-16T01:52:41.654Z,99943.88
2024-01-16T01:55:14.564Z,99934.25
2024-01-16T01:57:43.800Z,99942.13
2024-01-16T02:00:11.065Z,99941.97
2024-01-16T02:02:37.693Z,99938.91
2024-01-16T02:05:04.891Z,99962.94
2024-01-16T02:07:33.971Z,99995.81
2024-01-16T02:10:01.560Z,99996.22
2024-01-16T02:12:28.297Z,100003.19
2024-01-16T02:14:54.766Z,99989.97
2024-01-16T02:17:21.294Z,99983.72
2024-01-16T02:19:47.783Z,99984.25
2024-01-16T02:22:20.819Z,100004.88
2024-01-16T02:24:47.660Z,100012.25
2024-01-16T02:27:14.319Z,100023.03
2024-01-16T02:29:44.429Z,100012.50
2024-01-16T02:32:13.975Z,100011.84
2024-01-16T02:34:40.794Z,100014.56
2024-01-16T02:37:07.320Z,100012.50
2024-01-16T02:39:33.867Z,100023.38
2024-01-16T02:42:00.354Z,100030.44
2024-01-16T02:44:26.968Z,100033.38
2024-01-16T02:46:53.495Z,100026.75
2024-01-16T02:49:20.056Z,100029.56
2024-01-16T02:51:46.581Z,100038.28
2024-01-16T02:54:13.189Z,100053.03
2024-01-16T02:56:39.803Z,100032.56
2024-01-16T02:59:06.692Z,100028.59
2024-01-16T03:01:33.244Z,100034.72
2024-01-16T03:03:59.766Z,100030.66
2024-01-16T03:06:26.584Z,100034.97
2024-01-16T03:08:53.430Z,100021.13
2024-01-16T03:11:20.047Z,100024.88
2024-01-16T03:13:46.762Z,100032.75
2024-01-16T03:16:13.604Z,100037.69
2024-01-16T03:18:40.220Z,100040.53
2024-01-16T03:21:07.421Z,100031.56
2024-01-16T03:23:34.159Z,100030.22
2024-01-16T03:26:00.702Z,100028.25
2024-01-16T03:28:27.193Z,100039.13
2024-01-16T03:30:55.012Z,100033.69
2024-01-16T03:33:21.831Z,100036.53
2024-01-16T03:35:48.758Z,100029.81
2024-01-16T03:38:15.391Z,100026.97
2024-01-16T03:40:41.978Z,100029.19
2024-01-16T03:43:08.928Z,100022.41
2024-01-16T03:45:35.445Z,100018.59
2024-01-16T03:48:04.527Z,100022.72
2024-01-16T03:50:31.260Z,100039.00
2024-01-16T03:52:57.807Z,100039.19
2024-01-16T03:55:24.279Z,100038.97
2024-01-16T03:57:52.205Z,100034.06
2024-01-16T04:00:18.849Z,100041.00
2024-01-16T04:02:45.508Z,100056.00
2024-01-16T04:05:12.257Z,100049.44
2024-01-16T04:07:38.841Z,100035.84
2024-01-16T04:10:07.710Z,100033.94
2024-01-16T04:12:34.192Z,100035.19
2024-01-16T04:15:00.734Z,100040.56
2024-01-16T04:17:27.353Z,100039.88
2024-01-16T04:19:53.841Z,100041.38
2024-01-16T04:22:20.348Z,100033.16
2024-01-16T04:24:48.006Z,100030.03
2024-01-16T04:27:14.613Z,100024.16
2024-01-16T04:29:41.158Z,100040.13
2024-01-16T04:32:07.726Z,100040.53
2024-01-16T04:34:35.526Z,100030.72
2024-01-16T04:37:02.133Z,100028.63
2024-01-16T04:39:28.610Z,100036.59
2024-01-16T04:41:55.278Z,100040.63
2024-01-16T04:44:21.846Z,100043.19
2024-01-16T04:46:48.632Z,100049.63
2024-01-16T04:49:15.171Z,100043.69
2024-01-16T04:51:41.686Z,100051.94
2024-01-16T04:54:08.497Z,100039.38
2024-01-16T04:56:35.212Z,100041.94
2024-01-16T04:59:01.965Z,100023.44
2024-01-16T05:01:28.480Z,100024.00
2024-01-16T05:03:55.898Z,100024.66
2024-01-16T05:06:22.678Z,100034.25
2024-01-16T05:08:49.822Z,100026.28
2024-01-16T05:11:16.494Z,100032.03
2024-01-16T05:13:43.102Z,100033.91
2024-01-16T05:16:10.534Z,100049.00
2024-01-16T05:18:37.233Z,100035.88
2024-01-16T05:21:05.710Z,100034.94
2024-01-16T05:23:32.277Z,100037.69
2024-01-16T05:25:59.036Z,100028.13
2024-01-16T05:28:25.673Z,100022.53
2024-01-16T05:30:52.319Z,100025.19
2024-01-16T05:33:19.027Z,100028.69
2024-01-16T05:35:45.616Z,100025.78
2024-01-16T05:38:13.570Z,100026.78
2024-01-16T05:40:40.994Z,100022.69
2024-01-16T05:43:07.547Z,100012.63
2024-01-16T05:45:34.092Z,100002.13
2024-01-16T05:48:00.840Z,100006.06
2024-01-16T05:50:27.689Z,100005.59
2024-01-16T05:52:54.503Z,99990.81
2024-01-16T05:55:22.513Z,99993.31
2024-01-16T05:57:49.063Z,99994.75
2024-01-16T06:00:16.008Z,99986.53
2024-01-16T06:02:42.522Z,99988.00
2024-01-16T06:05:09.247Z,99995.91
2024-01-16T06:07:35.825Z,99980.91
2024-01-16T06:10:03.586Z,99971.00
2024-01-16T06:12:30.652Z,99987.78
2024-01-16T06:14:59.070Z,99979.19
2024-01-16T06:17:25.689Z,99992.28
2024-01-16T06:19:52.186Z,99993.03
2024-01-16T06:22:18.688Z,99995.25
2024-01-16T06:24:45.174Z,99989.94
2024-01-16T06:27:11.650Z,99997.25
2024-01-16T06:29:38.184Z,99994.69
2024-01-16T06:32:05.439Z,99992.22
2024-01-16T06:34:32.072Z,99994.28
2024-01-16T06:36:58.640Z,100000.00
2024-01-16T06:39:25.111Z,99990.06
2024-01-16T06:41:51.774Z,99998.88
2024-01-16T06:44:20.184Z,99999.22
2024-01-16T06:46:47.008Z,100004.44
2024-01-16T06:49:13.768Z,100000.09
2024-01-16T06:51:40.320Z,99995.66
2024-01-16T06:54:06.862Z,100006.88
2024-01-16T06:56:33.487Z,100005.19
2024-01-16T06:59:00.017Z,100000.97
2024-01-16T07:01:27.810Z,99996.88
2024-01-16T07:03:54.361Z,100009.56
2024-01-16T07:06:20.978Z,100009.59
2024-01-16T07:08:47.732Z,100004.66
2024-01-16T07:11:14.985Z,100019.00
2024-01-16T07:13:42.495Z,100013.59
2024-01-16T07:16:12.578Z,100015.31
2024-01-16T07:18:39.559Z,100010.41
2024-01-16T07:21:17.188Z,100014.06
2024-01-16T07:23:43.702Z,100020.88
2024-01-16T07:26:10.258Z,100013.31
2024-01-16T07:28:36.753Z,100013.72
2024-01-16T07:31:03.354Z,100024.34
2024-01-16T07:33:30.000Z,100014.94
2024-01-16T07:35:56.650Z,100020.47
2024-01-16T07:38:23.546Z,100021.88
2024-01-16T07:40:50.149Z,100019.47
2024-01-16T07:43:16.922Z,100023.16
2024-01-16T07:45:43.428Z,100014.16
2024-01-16T07:48:09.964Z,100016.16
2024-01-16T07:50:36.534Z,100020.28
2024-01-16T07:53:03.156Z,100025.16
2024-01-16T07:55:29.655Z,100022.53
2024-01-16T07:57:56.562Z,100031.94
2024-01-16T08:00:23.121Z,100032.38
2024-01-16T08:02:50.108Z,100017.00
2024-01-16T08:05:17.024Z,100026.22
2024-01-16T08:07:44.649Z,100039.75
2024-01-16T08:10:11.188Z,100029.09
2024-01-16T08:12:38.441Z,100020.28
2024-01-16T08:15:06.368Z,100019.84
2024-01-16T08:17:32.884Z,100018.16
2024-01-16T08:19:59.397Z,100019.81
2024-01-16T08:22:25.932Z,100028.66
2024-01-16T08:24:52.483Z,100025.53
2024-01-16T08:27:20.619Z,100024.75
2024-01-16T08:29:49.539Z,100016.31
2024-01-16T08:32:16.168Z,100016.44
2024-01-16T08:34:42.889Z,100018.75
2024-01-16T08:37:10.402Z,100022.44
2024-01-16T08:39:37.281Z,100015.25
2024-01-16T08:42:04.239Z,100026.25
2024-01-16T08:44:30.755Z,100025.28
2024-01-16T08:46:58.766Z,100022.97
2024-01-16T08:49:25.262Z,100029.03
2024-01-16T08:51:51.935Z,100023.22
2024-01-16T08:54:18.457Z,100020.47
2024-01-16T08:56:44.973Z,100024.56
2024-01-16T08:59:11.599Z,100029.22
2024-01-16T09:01:38.285Z,100024.91
2024-01-16T09:04:04.892Z,100042.72
2024-01-16T09:06:31.611Z,100040.03
2024-01-16T09:08:58.206Z,100036.47
2024-01-16T09:11:24.709Z,100041.69
2024-01-16T09:13:51.229Z,100037.34
2024-01-16T09:16:17.838Z,100032.19
2024-01-16T09:18:44.599Z,100045.50
2024-01-16T09:21:11.192Z,100050.25
2024-01-16T09:23:37.665Z,100050.47
2024-01-16T09:26:04.280Z,100052.78
2024-01-16T09:28:30.754Z,100044.97
2024-01-16T09:30:57.357Z,100053.16
2024-01-16T09:33:26.993Z,100047.16
2024-01-16T09:35:53.817Z,100045.59
2024-01-16T09:38:20.494Z,100053.31
2024-01-16T09:40:51.906Z,100053.88
2024-01-16T09:43:18.491Z,100044.19
2024-01-16T09:45:48.520Z,100051.94
2024-01-16T09:48:15.854Z,100052.19
2024-01-16T09:50:42.469Z,100044.63
2024-01-16T09:53:09.043Z,100040.31
2024-01-16T09:55:35.600Z,100046.91
2024-01-16T09:58:04.670Z,100042.97
2024-01-16T10:00:31.867Z,100044.66
2024-01-16T10:03:00.692Z,100038.34
2024-01-16T10:05:27.666Z,100046.66
2024-01-16T10:07:55.545Z,100053.22
2024-01-16T10:10:30.359Z,100057.63
2024-01-16T10:13:05.583Z,100061.25
2024-01-16T10:15:32.654Z,100055.72
2024-01-16T10:18:00.860Z,100063.56
2024-01-16T10:20:35.544Z,100062.72
2024-01-16T10:23:04.605Z,100066.59
2024-01-16T10:25:31.130Z,100072.13
2024-01-16T10:28:06.021Z,100059.59
2024-01-16T10:30:32.682Z,100044.84
2024-01-16T10:33:14.653Z,100061.22
2024-01-16T10:35:41.257Z,100056.38
2024-01-16T10:38:07.825Z,100067.91
2024-01-16T10:40:35.301Z,100065.13
2024-01-16T10:43:04.450Z,100063.97
2024-01-16T10:45:31.747Z,100076.53
2024-01-16T10:48:04.989Z,100076.09
2024-01-16T10:50:32.474Z,100074.91
2024-01-16T10:53:02.252Z,100062.88
2024-01-16T10:55:30.775Z,100066.84
2024-01-16T10:57:57.916Z,100061.25
2024-01-16T11:00:25.750Z,100067.81
2024-01-16T11:03:08.588Z,100068.94
2024-01-16T11:05:36.861Z,100078.69
2024-01-16T11:08:06.781Z,100081.72
2024-01-16T11:10:36.134Z,100083.72
2024-01-16T11:13:03.961Z,100087.97
2024-01-16T11:15:30.657Z,100078.00
2024-01-16T11:17:58.749Z,100080.91
2024-01-16T11:20:41.292Z,100085.94
2024-01-16T11:23:14.005Z,100085.50
2024-01-16T11:25:40.634Z,100084.03
2024-01-16T11:28:16.882Z,100080.16
2024-01-16T11:30:45.124Z,100086.00
2024-01-16T11:33:33.628Z,100090.72
2024-01-16T11:36:01.279Z,100086.56
2024-01-16T11:38:28.293Z,100096.53
2024-01-16T11:40:55.278Z,100090.66
2024-01-16T11:43:34.153Z,100088.41
2024-01-16T11:46:02.219Z,100092.41
2024-01-16T11:48:28.981Z,100094.06
2024-01-16T11:50:55.895Z,100098.50
2024-01-16T11:53:31.683Z,100100.00
2024-01-16T11:56:38.151Z,100095.44
2024-01-16T11:59:30.457Z,100103.38
2024-01-16T12:02:02.824Z,100097.25
2024-01-16T12:04:30.683Z,100113.66
2024-01-16T12:07:01.864Z,100100.03
2024-01-16T12:09:29.487Z,100094.19
2024-01-16T12:12:03.903Z,100104.50
2024-01-16T12:14:31.533Z,100099.13
2024-01-16T12:17:14.785Z,100085.69
2024-01-16T12:19:43.636Z,100096.41
2024-01-16T12:22:11.288Z,100090.06
2024-01-16T12:24:38.813Z,100095.09
2024-01-16T12:27:06.336Z,100090.41
2024-01-16T12:29:33.312Z,100091.63
2024-01-16T12:32:10.820Z,100072.97
2024-01-16T12:34:46.867Z,100082.38
2024-01-16T12:37:13.938Z,100085.06
2024-01-16T12:39:42.706Z,100077.72
2024-01-16T12:42:11.178Z,100077.31
2024-01-16T12:44:37.732Z,100077.16
2024-01-16T12:47:04.485Z,100077.75
2024-01-16T12:49:31.608Z,100076.44
2024-01-16T12:52:22.035Z,100068.56
2024-01-16T12:54:50.037Z,100071.06
2024-01-16T12:57:22.697Z,100069.19
2024-01-16T12:59:50.406Z,100066.41
2024-01-16T13:02:25.684Z,100060.41
2024-01-16T13:05:04.506Z,100063.66
2024-01-16T13:07:32.953Z,100062.22
2024-01-16T13:10:14.090Z,100060.25
2024-01-16T13:12:40.832Z,100049.78
2024-01-16T13:15:07.908Z,100050.09
2024-01-16T13:17:38.201Z,100054.06
2024-01-16T13:20:08.673Z,100043.50
2024-01-16T13:22:43.328Z,100041.00
2024-01-16T13:25:12.960Z,100046.88
2024-01-16T13:27:39.584Z,100046.09
2024-01-16T13:30:07.220Z,100052.38
2024-01-16T13:32:37.859Z,100051.28
2024-01-16T13:35:08.899Z,100052.13
2024-01-16T13:37:38.322Z,100047.59
2024-01-16T13:40:09.931Z,100043.06
2024-01-16T13:42:36.710Z,100038.63
2024-01-16T13:45:05.257Z,100043.41
2024-01-16T13:47:32.118Z,100045.03
2024-01-16T13:49:58.747Z,100036.38
2024-01-16T13:52:27.241Z,100042.69
2024-01-16T13:54:55.338Z,100040.25
2024-01-16T13:57:22.048Z,100035.97
2024-01-16T13:59:48.756Z,100037.16
2024-01-16T14:02:15.353Z,100039.50
2024-01-16T14:04:41.899Z,100041.72
2024-01-16T14:07:12.597Z,100041.50
2024-01-16T14:09:43.120Z,100052.56
2024-01-16T14:12:10.703Z,100056.28
2024-01-16T14:14:39.281Z,100060.97
2024-01-16T14:17:06.196Z,100058.72
2024-01-16T14:19:35.233Z,100055.84
2024-01-16T14:22:02.052Z,100048.72
2024-01-16T14:24:28.642Z,100045.50
2024-01-16T14:26:57.734Z,100049.78
2024-01-16T14:29:24.370Z,100054.50
2024-01-16T14:31:51.100Z,100046.84
2024-01-16T14:34:19.227Z,100044.66
2024-01-16T14:36:46.814Z,100036.66
2024-01-16T14:39:22.854Z,100046.75
2024-01-16T14:41:49.429Z,100051.19
2024-01-16T14:44:16.054Z,100041.16
2024-01-16T14:46:47.178Z,100046.31
2024-01-16T14:49:15.493Z,100038.28
2024-01-16T14:51:42.430Z,100047.09
2024-01-16T14:54:10.014Z,100041.13
2024-01-16T14:56:36.781Z,100047.50
2024-01-16T14:59:04.002Z,100024.50
2024-01-16T15:01:30.528Z,100033.28
2024-01-16T15:03:58.646Z,100020.50
2024-01-16T15:06:27.816Z,100022.75
2024-01-16T15:08:54.969Z,100024.34
2024-01-16T15:11:22.059Z,100013.72
2024-01-16T15:13:50.398Z,100020.31
2024-01-16T15:16:17.633Z,100022.44
2024-01-16T15:18:44.675Z,100018.44
2024-01-16T15:21:11.784Z,100018.25
2024-01-16T15:23:38.448Z,100022.25
2024-01-16T15:26:05.896Z,100026.69
2024-01-16T15:28:33.631Z,100017.00
2024-01-16T15:31:07.346Z,100014.09
2024-01-16T15:33:36.292Z,100010.09
2024-01-16T15:36:04.342Z,100015.75
2024-01-16T15:38:30.936Z,100012.53
2024-01-16T15:40:57.434Z,100019.97
2024-01-16T15:43:23.991Z,100014.84
2024-01-16T15:45:50.652Z,100007.75
2024-01-16T15:48:17.226Z,100008.00
2024-01-16T15:50:43.848Z,100011.09
2024-01-16T15:53:10.733Z,100010.94
2024-01-16T15:55:37.271Z,100012.75
2024-01-16T15:58:05.235Z,100008.44
2024-01-16T16:00:32.187Z,100004.69
2024-01-16T16:03:00.708Z,100014.47
2024-01-16T16:05:27.467Z,100000.50
2024-01-16T16:07:54.057Z,100012.56
2024-01-16T16:10:20.623Z,100011.50
2024-01-16T16:12:47.649Z,100009.94
2024-01-16T16:15:14.123Z,100008.69
2024-01-16T16:17:40.644Z,100000.56
2024-01-16T16:20:10.452Z,100004.09
2024-01-16T16:22:39.491Z,100006.00
2024-01-16T16:25:06.860Z,99994.06
2024-01-16T16:27:33.392Z,100004.00
2024-01-16T16:29:59.996Z,99995.03
2024-01-16T16:32:26.814Z,100004.84
2024-01-16T16:34:54.283Z,100008.13
2024-01-16T16:37:21.979Z,99998.66
2024-01-16T16:39:48.694Z,100006.66
2024-01-16T16:42:17.672Z,99998.75
2024-01-16T16:44:45.622Z,99997.44
2024-01-16T16:47:12.382Z,99994.91
2024-01-16T16:49:38.970Z,99985.53
2024-01-16T16:52:05.733Z,99983.97
2024-01-16T16:54:32.413Z,99985.50
2024-01-16T16:56:59.096Z,99988.72
2024-01-16T16:59:25.846Z,99988.97
2024-01-16T17:01:53.229Z,99988.03
2024-01-16T17:04:19.961Z,99980.03
2024-01-16T17:06:46.623Z,99985.53
2024-01-16T17:09:13.296Z,99986.91
2024-01-16T17:11:40.654Z,99987.72
2024-01-16T17:14:07.217Z,99993.47
2024-01-16T17:16:33.817Z,99991.59
2024-01-16T17:19:00.556Z,99986.78
2024-01-16T17:21:27.260Z,99985.97
2024-01-16T17:23:54.133Z,99982.31
2024-01-16T17:26:20.822Z,99977.38
2024-01-16T17:28:47.567Z,99967.94
2024-01-16T17:31:14.120Z,99971.69
2024-01-16T17:33:40.788Z,99961.31
2024-01-16T17:36:11.477Z,99973.13
2024-01-16T17:38:38.114Z,99974.31
2024-01-16T17:41:05.781Z,99964.06
2024-01-16T17:43:32.448Z,99966.63
2024-01-16T17:45:59.141Z,99967.72
2024-01-16T17:48:26.717Z,99973.97
2024-01-16T17:50:53.480Z,99965.41
2024-01-16T17:53:20.524Z,99968.56
2024-01-16T17:55:47.661Z,99962.03
2024-01-16T17:58:16.664Z,99967.84
2024-01-16T18:00:43.305Z,99959.97
2024-01-16T18:03:24.091Z,99947.91
2024-01-16T18:06:00.442Z,99956.53
2024-01-16T18:08:27.218Z,99959.06
2024-01-16T18:10:55.620Z,99962.41
2024-01-16T18:13:23.254Z,99955.06
2024-01-16T18:15:50.009Z,99959.84
2024-01-16T18:18:18.273Z,99965.66
2024-01-16T18:20:45.035Z,99964.47
2024-01-16T18:23:11.958Z,99963.94
2024-01-16T18:25:38.516Z,99968.84
2024-01-16T18:28:05.456Z,99970.06
2024-01-16T18:30:34.294Z,99969.38
2024-01-16T18:33:02.036Z,99975.63
2024-01-16T18:35:29.460Z,99963.53
2024-01-16T18:37:56.135Z,99966.44
2024-01-16T18:40:24.491Z,99962.56
2024-01-16T18:42:51.259Z,99967.28
2024-01-16T18:45:17.820Z,99962.13
2024-01-16T18:47:45.792Z,99961.06
2024-01-16T18:50:12.952Z,99968.63
2024-01-16T18:52:41.022Z,99967.09
2024-01-16T18:55:12.085Z,99969.75
2024-01-16T18:57:40.499Z,99963.88
2024-01-16T19:00:15.531Z,99970.19
2024-01-16T19:02:49.175Z,99968.22
2024-01-16T19:05:16.909Z,99956.16
2024-01-16T19:07:44.557Z,99965.16
2024-01-16T19:10:13.758Z,99960.50
2024-01-16T19:12:47.833Z,99959.06
2024-01-16T19:15:18.493Z,99952.34
2024-01-16T19:17:51.346Z,99961.41
2024-01-16T19:20:22.967Z,99960.72
2024-01-16T19:22:56.103Z,99947.47
2024-01-16T19:25:26.231Z,99963.31
2024-01-16T19:27:53.270Z,99947.47
2024-01-16T19:30:20.695Z,99953.59
2024-01-16T19:32:49.610Z,99942.06
2024-01-16T19:35:17.952Z,99936.03
2024-01-16T19:37:45.455Z,99937.63
2024-01-16T19:40:13.602Z,99932.78
2024-01-16T19:42:40.723Z,99941.47
2024-01-16T19:45:10.324Z,99941.59
2024-01-16T19:47:40.493Z,99950.09
2024-01-16T19:50:10.829Z,99944.09
2024-01-16T19:52:37.331Z,99940.47
2024-01-16T19:55:06.791Z,99949.22
2024-01-16T19:57:33.786Z,99947.81
2024-01-16T20:00:02.611Z,99938.22
2024-01-16T20:02:29.303Z,99931.44
2024-01-16T20:04:55.952Z,99916.38
2024-01-16T20:07:22.442Z,99931.59
2024-01-16T20:09:48.942Z,99929.84
2024-01-16T20:12:15.530Z,99917.63
2024-01-16T20:14:42.777Z,99919.13
2024-01-16T20:17:09.293Z,99925.28
2024-01-16T20:19:35.836Z,99916.94
2024-01-16T20:22:02.386Z,99915.97
2024-01-16T20:24:30.126Z,99915.91
2024-01-16T20:26:56.637Z,99910.72
2024-01-16T20:29:23.219Z,99916.34
2024-01-16T20:31:49.754Z,99922.84
2024-01-16T20:34:16.664Z,99910.34
2024-01-16T20:36:43.433Z,99905.88
2024-01-16T20:39:10.664Z,99905.41
2024-01-16T20:41:37.164Z,99910.38
2024-01-16T20:44:04.210Z,99896.75
2024-01-16T20:46:30.802Z,99891.81
2024-01-16T20:48:57.474Z,99888.47
2024-01-16T20:51:26.142Z,99894.66
2024-01-16T20:53:53.111Z,99893.38
2024-01-16T20:56:19.751Z,99889.88
2024-01-16T20:58:46.285Z,99877.19
2024-01-16T21:01:12.803Z,99877.03
2024-01-16T21:03:39.674Z,99873.25
2024-01-16T21:06:09.499Z,99867.25
2024-01-16T21:08:37.060Z,99861.63
2024-01-16T21:11:03.718Z,99851.75
2024-01-16T21:13:30.846Z,99864.09
2024-01-16T21:16:00.173Z,99855.88
2024-01-16T21:18:32.134Z,99868.41
2024-01-16T21:20:58.984Z,99855.66
2024-01-16T21:23:25.500Z,99855.06
2024-01-16T21:25:52.000Z,99863.69
2024-01-16T21:28:18.775Z,99864.53
2024-01-16T21:30:45.396Z,99853.81
2024-01-16T21:33:13.655Z,99845.06
2024-01-16T21:35:42.481Z,99839.97
2024-01-16T21:38:09.113Z,99839.78
2024-01-16T21:40:36.235Z,99833.41
2024-01-16T21:43:04.576Z,99831.31
2024-01-16T21:45:31.973Z,99831.75
2024-01-16T21:47:58.647Z,99826.44
2024-01-16T21:50:33.653Z,99821.28
2024-01-16T21:53:04.910Z,99824.00
2024-01-16T21:55:31.503Z,99813.75
2024-01-16T21:57:58.110Z,99818.47
2024-01-16T22:00:24.713Z,99818.25
2024-01-16T22:02:57.764Z,99820.75
2024-01-16T22:05:26.643Z,99809.47
2024-01-16T22:07:53.241Z,99816.03
2024-01-16T22:10:19.711Z,99807.84
2024-01-16T22:12:46.654Z,99797.00
2024-01-16T22:15:13.627Z,99797.00
2024-01-16T22:17:40.359Z,99790.47
2024-01-16T22:20:07.581Z,99783.69
2024-01-16T22:22:34.217Z,99783.91
2024-01-16T22:25:00.820Z,99787.59
2024-01-16T22:27:27.365Z,99792.88
2024-01-16T22:29:53.936Z,99789.84
2024-01-16T22:32:22.116Z,99788.59
2024-01-16T22:34:48.838Z,99780.81
2024-01-16T22:37:15.579Z,99775.69
2024-01-16T22:39:44.986Z,99767.53
2024-01-16T22:42:11.529Z,99761.16
2024-01-16T22:44:39.705Z,99756.63
2024-01-16T22:47:06.774Z,99749.94
2024-01-16T22:49:36.357Z,99753.63
2024-01-16T22:52:03.241Z,99756.06
2024-01-16T22:54:29.740Z,99759.16
2024-01-16T22:56:56.294Z,99744.00
2024-01-16T22:59:22.788Z,99733.75
2024-01-16T23:01:49.378Z,99736.44
2024-01-16T23:04:15.967Z,99719.03
2024-01-16T23:06:42.538Z,99729.06
2024-01-16T23:09:10.631Z,99730.91
2024-01-16T23:11:37.186Z,99720.44
2024-01-16T23:14:03.732Z,99720.28
2024-01-16T23:16:30.303Z,99714.31
2024-01-16T23:18:57.207Z,99709.44
2024-01-16T23:21:25.165Z,99705.31
2024-01-16T23:23:54.780Z,99703.25
2024-01-16T23:26:23.457Z,99707.97
2024-01-16T23:28:50.096Z,99700.81
2024-01-16T23:31:17.537Z,99697.56
2024-01-16T23:33:44.395Z,99698.75
2024-01-16T23:36:11.134Z,99701.63
2024-01-16T23:38:39.964Z,99699.78
2024-01-16T23:41:10.197Z,99693.03
2024-01-16T23:43:38.153Z,99694.47
2024-01-16T23:46:08.478Z,99679.16
2024-01-16T23:48:35.388Z,99691.81
2024-01-16T23:51:03.226Z,99681.78
2024-01-16T23:53:30.326Z,99681.81
2024-01-16T23:55:57.578Z,99674.44
2024-01-16T23:58:25.488Z,99672.59
